This is the latest recevied weather packets stored in our database for station/object AA1FF. If no packets are shown the sender has not sent any weather packets the latest 1 day(s).
| Time | Temp. | Humidity | Pressure | Rain* | Wind** | Luminosity | Snow |
|---|---|---|---|---|---|---|---|
| 1778107125 | 14.44° C | 99% | 1007 hPa | 0 mm | - | 8 W/m² | - |
| 1778106826 | 14.44° C | 99% | 1007 hPa | 0 mm | - | 9 W/m² | - |
| 1778106524 | 14.44° C | 99% | 1007 hPa | 0 mm | - | 13 W/m² | - |
| 1778106226 | 14.44° C | 99% | 1007 hPa | 0 mm | - | 8 W/m² | - |
| 1778105623 | 13.89° C | 99% | 1007 hPa | 0 mm | - | 27 W/m² | - |
| 1778103824 | 14.44° C | 99% | 1007 hPa | 0 mm | - | 23 W/m² | - |
| 1778101726 | 14.44° C | 98% | 1007 hPa | 0 mm | - | 47 W/m² | - |
| 1778099325 | 14.44° C | 97% | 1007 hPa | 0 mm | - | 44 W/m² | - |
| 1778099025 | 14.44° C | 97% | 1008 hPa | 0 mm | - | 30 W/m² | - |
| 1778098429 | 14.44° C | 97% | 1008 hPa | 0 mm | - | 59 W/m² | - |
| 1778098126 | 14.44° C | 97% | 1008 hPa | 0.25 mm | - | 41 W/m² | - |
| 1778097826 | 14.44° C | 97% | 1008 hPa | 0.25 mm | - | 54 W/m² | - |
| 1778097223 | 14.44° C | 97% | 1008 hPa | 0.76 mm | - | 56 W/m² | - |
| 1778096626 | 14.44° C | 96% | 1008 hPa | 0 mm | - | 46 W/m² | - |
| 1778096325 | 14.44° C | 96% | 1008 hPa | 0 mm | - | 63 W/m² | - |
| 1778096026 | 14.44° C | 96% | 1008 hPa | 0.51 mm | - | 64 W/m² | - |
| 1778095428 | 14.44° C | 95% | 1008 hPa | 0.25 mm | - | 89 W/m² | - |
| 1778094838 | 14.44° C | 94% | 1008 hPa | 1.78 mm | - | 114 W/m² | - |
| 1778093627 | 15° C | 92% | 1008 hPa | 1.52 mm | - | 95 W/m² | - |
| 1778090926 | 16.67° C | 81% | 1009 hPa | 1.52 mm | - | 122 W/m² | - |
| 1778090326 | 17.78° C | 76% | 1009 hPa | 0.25 mm | - | 122 W/m² | - |
| 1778089725 | 17.78° C | 73% | 1009 hPa | 0 mm | - | 118 W/m² | - |
| 1778089426 | 18.33° C | 72% | 1009 hPa | 0 mm | - | 124 W/m² | - |
| 1778089126 | 18.33° C | 73% | 1009 hPa | 0 mm | - | 153 W/m² | - |
| 1778088226 | 18.89° C | 69% | 1009 hPa | 0 mm | - | 179 W/m² | - |
* Rain latest hour (hover to see other rain measurements)
** Current wind speed in m/s (hover to see current wind gust speed)